地図

経路データ

SID SEASON NUMBER BASIN SUBBASIN NAME ISO_TIME NATURE LAT LON WMO_WIND WMO_PRES WMO_AGENCY TRACK_TYPE DIST2LAND LANDFALL IFLAG USA_AGENCY USA_ATCF_ID USA_LAT USA_LON USA_RECORD USA_STATUS USA_WIND USA_PRES USA_SSHS USA_R34_NE USA_R34_SE USA_R34_SW USA_R34_NW USA_R50_NE USA_R50_SE USA_R50_SW USA_R50_NW USA_R64_NE USA_R64_SE USA_R64_SW USA_R64_NW USA_POCI USA_ROCI USA_RMW USA_EYE TOKYO_LAT TOKYO_LON TOKYO_GRADE TOKYO_WIND TOKYO_PRES TOKYO_R50_DIR TOKYO_R50_LONG TOKYO_R50_SHORT TOKYO_R30_DIR TOKYO_R30_LONG TOKYO_R30_SHORT TOKYO_LAND CMA_LAT CMA_LON CMA_CAT CMA_WIND CMA_PRES HKO_LAT HKO_LON HKO_CAT HKO_WIND HKO_PRES NEWDELHI_LAT NEWDELHI_LON NEWDELHI_GRADE NEWDELHI_WIND NEWDELHI_PRES NEWDELHI_CI NEWDELHI_DP NEWDELHI_POCI REUNION_LAT REUNION_LON REUNION_TYPE REUNION_WIND REUNION_PRES REUNION_TNUM REUNION_CI REUNION_RMW REUNION_R34_NE REUNION_R34_SE REUNION_R34_SW REUNION_R34_NW REUNION_R50_NE REUNION_R50_SE REUNION_R50_SW REUNION_R50_NW REUNION_R64_NE REUNION_R64_SE REUNION_R64_SW REUNION_R64_NW BOM_LAT BOM_LON BOM_TYPE BOM_WIND BOM_PRES BOM_TNUM BOM_CI BOM_RMW BOM_R34_NE BOM_R34_SE BOM_R34_SW BOM_R34_NW BOM_R50_NE BOM_R50_SE BOM_R50_SW BOM_R50_NW BOM_R64_NE BOM_R64_SE BOM_R64_SW BOM_R64_NW BOM_ROCI BOM_POCI BOM_EYE BOM_POS_METHOD BOM_PRES_METHOD NADI_LAT NADI_LON NADI_CAT NADI_WIND NADI_PRES WELLINGTON_LAT WELLINGTON_LON WELLINGTON_WIND WELLINGTON_PRES DS824_LAT DS824_LON DS824_STAGE DS824_WIND DS824_PRES TD9636_LAT TD9636_LON TD9636_STAGE TD9636_WIND TD9636_PRES TD9635_LAT TD9635_LON TD9635_WIND TD9635_PRES TD9635_ROCI NEUMANN_LAT NEUMANN_LON NEUMANN_CLASS NEUMANN_WIND NEUMANN_PRES MLC_LAT MLC_LON MLC_CLASS MLC_WIND MLC_PRES USA_GUST BOM_GUST BOM_GUST_PER REUNION_GUST REUNION_GUST_PER USA_SEAHGT USA_SEARAD_NE USA_SEARAD_SE USA_SEARAD_SW USA_SEARAD_NW STORM_SPEED STORM_DIR
1956240S11098 1957 79 SI WA NOT_NAMED 1956-08-26 16:00:00 NR -10.6000 98.4000 main 844 835 __________O___ -1 -10.6000 98.4000 1 25 2 345
1956240S11098 1957 79 SI WA NOT_NAMED 1956-08-26 18:00:00 TS -10.5339 98.3753 main 835 835 O________OP___ jtwc_sh SH011957 -10.5000 98.4000 25 -1 -10.5000 98.4000 TC 25 -10.5846 98.3383 1 25 3 308
1956240S11098 1957 79 SI WA NOT_NAMED 1956-08-26 21:00:00 TS -10.4521 98.2084 main 848 848 P________PP___ SH011957 -10.3725 98.2000 27 -1 -10.3725 98.2000 TC 27 -10.6111 98.2253 1 27 4 262
1956240S11098 1957 79 SI WA NOT_NAMED 1956-08-27 00:00:00 TS -10.5815 98.0183 main 871 871 O________OP___ jtwc_sh SH011957 -10.5000 98.0000 30 -1 -10.5000 98.0000 TC 30 -10.7649 98.0594 1 28 7 213
1956240S11098 1957 79 SI WA NOT_NAMED 1956-08-27 03:00:00 TS -11.0737 97.7925 main 928 928 P________PP___ SH011957 -11.0575 97.7872 30 -1 -11.0575 97.7872 TC 30 -11.1224 97.8083 1 29 12 203
1956240S11098 1957 79 SI WA NOT_NAMED 1956-08-27 04:00:00 TS -11.3133 97.7025 main 953 953 P________PO___ SH011957 -11.3177 97.7034 30 -1 -11.3177 97.7034 TC 30 -11.3000 97.7000 1 30 17 201
1956240S11098 1957 79 SI WA NOT_NAMED 1956-08-27 06:00:00 TS -11.8628 97.4860 main 1019 1019 O________OP___ jtwc_sh SH011957 -11.9000 97.5000 30 -1 -11.9000 97.5000 TC 30 -11.7512 97.4440 1 19 204
1956240S11098 1957 79 SI WA NOT_NAMED 1956-08-27 09:00:00 TS -12.7694 97.0534 main 1113 1122 P________PP___ SH011957 -12.8201 97.0727 30 -1 -12.8201 97.0727 TC 30 -12.6172 96.9954 1 21 205
1956240S11098 1957 79 SI WA NOT_NAMED 1956-08-27 12:00:00 TS -13.7552 96.5823 main 1224 1224 O________OP___ jtwc_sh SH011957 -13.8000 96.6000 30 -1 -13.8000 96.6000 TC 30 -13.6209 96.5293 1 21 204
1956240S11098 1957 79 SI WA NOT_NAMED 1956-08-27 15:00:00 TS -14.6905 96.1560 main 1322 1330 P________PP___ SH011957 -14.7000 96.1698 30 -1 -14.7000 96.1698 TC 30 -14.6619 96.1147 1 20 203
1956240S11098 1957 79 SI WA NOT_NAMED 1956-08-27 16:00:00 TS -14.9981 96.0280 main 1360 1360 P________PO___ SH011957 -14.9975 96.0374 30 -1 -14.9975 96.0374 TC 30 -15.0000 96.0000 4 20 201
1956240S11098 1957 79 SI WA NOT_NAMED 1956-08-27 18:00:00 TS -15.6070 95.7958 main 1421 1429 O________OP___ jtwc_sh SH011957 -15.6000 95.8000 30 -1 -15.6000 95.8000 TC 30 -15.6281 95.7832 4 20 199
1956240S11098 1957 79 SI WA NOT_NAMED 1956-08-27 21:00:00 TS -16.5746 95.4785 main 1522 1522 P________PP___ SH011957 -16.5799 95.4605 27 -1 -16.5799 95.4605 TC 27 -16.5587 95.5325 4 19 193
1956240S11098 1957 79 SI WA NOT_NAMED 1956-08-28 00:00:00 TS -17.4864 95.3265 main 1609 1609 O________OP___ jtwc_sh SH011957 -17.5000 95.3000 25 -1 -17.5000 95.3000 TC 25 -17.4454 95.4060 4 17 182
1956240S11098 1957 79 SI WA NOT_NAMED 1956-08-28 03:00:00 TS -18.2583 95.4014 main 1669 1669 P________PP___ SH011957 -18.2597 95.3872 25 -1 -18.2597 95.3872 TC 25 -18.2539 95.4439 4 15 172
1956240S11098 1957 79 SI WA NOT_NAMED 1956-08-28 04:00:00 TS -18.4880 95.4777 main 1679 1679 P________PO___ SH011957 -18.4840 95.4702 25 -1 -18.4840 95.4702 TC 25 -18.5000 95.5000 1 25 14 157
1956240S11098 1957 79 SI WA NOT_NAMED 1956-08-28 06:00:00 TS -18.9109 95.6941 main 1700 1700 O________OP___ jtwc_sh SH011957 -18.9000 95.7000 25 -1 -18.9000 95.7000 TC 25 -18.9436 95.6763 1 14 148
1956240S11098 1957 79 SI WA NOT_NAMED 1956-08-28 09:00:00 TS -19.4862 96.1356 main 1728 1722 P________PP___ SH011957 -19.4726 96.1476 22 -1 -19.4726 96.1476 TC 22 -19.5270 96.0997 1 15 140
1956240S11098 1957 79 SI WA NOT_NAMED 1956-08-28 12:00:00 TS -20.0113 96.6894 main 1739 1698 O________OP___ jtwc_sh SH011957 -20.0000 96.7000 20 -1 -20.0000 96.7000 TC 20 -20.0454 96.6574 1 15 135
1956240S11098 1957 79 SI WA NOT_NAMED 1956-08-28 15:00:00 TS -20.5520 97.2535 main 1698 1686 P________PP___ SH011957 -20.5574 97.2427 20 -1 -20.5574 97.2427 TC 20 -20.5360 97.2859 1 15 135
1956240S11098 1957 79 SI WA NOT_NAMED 1956-08-28 16:00:00 TS -20.7309 97.4461 main 1686 1638 P________PO___ SH011957 -20.7411 97.4281 20 -1 -20.7411 97.4281 TC 20 -20.7000 97.5000 1 15 136
1956240S11098 1957 79 SI WA NOT_NAMED 1956-08-28 18:00:00 TS -21.0935 97.8048 main 1638 1575 O________OP___ jtwc_sh SH011957 -21.1000 97.8000 20 -1 -21.1000 97.8000 TC 20 -21.0741 97.8191 1 14 138
1956240S11098 1957 79 SI WA NOT_NAMED 1956-08-28 21:00:00 TS -21.6125 98.3056 main 1575 1502 P________PP___ SH011957 -21.6067 98.2986 17 -1 -21.6067 98.2986 TC 17 -21.6300 98.3268 1 15 135
1956240S11098 1957 79 SI WA NOT_NAMED 1956-08-29 00:00:00 TS -22.1156 98.9074 main 1502 1454 O________OP___ jtwc_sh SH011957 -22.1000 98.9000 15 -1 -22.1000 98.9000 TC 15 -22.1622 98.9296 1 20 128
1956240S11098 1957 79 SI WA NOT_NAMED 1956-08-29 01:00:00 TS -22.4321 99.4289 1005 bom main 1444 1353 P_____O__PP___ SH011957 -22.2768 99.1365 15 -1 -24.7000 104.000 1005 -22.2768 99.1365 TC 15 -22.3309 99.1635 1 29 122
1956240S11098 1957 79 SI WA NOT_NAMED 1956-08-29 03:00:00 TS -22.8686 100.219 main 1353 1299 P_____P__PP___ SH011957 -22.6289 99.6802 15 -1 -24.7424 104.498 -22.6289 99.6802 TC 15 -22.6506 99.6961 1 28 119
1956240S11098 1957 79 SI WA NOT_NAMED 1956-08-29 04:00:00 TS -23.1082 100.744 main 1299 1203 P_____P__PO___ SH011957 -22.7972 99.9910 15 -1 -24.7630 104.747 -22.7972 99.9910 TC 15 -22.8000 100.000 1 15 28 114
1956240S11098 1957 79 SI WA NOT_NAMED 1956-08-29 06:00:00 TS -23.4360 101.610 main 1203 1078 O_____P__OP___ jtwc_sh SH011957 -23.1000 100.700 15 -1 -24.8030 105.246 -23.1000 100.700 TC 15 -23.0771 100.705 1 15 24 108
1956240S11098 1957 79 SI WA NOT_NAMED 1956-08-29 09:00:00 TS -23.7185 102.776 main 1078 953 P_____P__PP___ SH011957 -23.4304 101.983 15 -1 -24.8599 105.995 -23.4304 101.983 TC 15 -23.4413 101.933 1 17 23 103
1956240S11098 1957 79 SI WA NOT_NAMED 1956-08-29 12:00:00 TS -23.9529 104.048 main 953 820 O_____P__OP___ jtwc_sh SH011957 -23.7000 103.400 15 -1 -24.9131 106.745 -23.7000 103.400 TC 15 -23.7515 103.297 1 18 23 102
1956240S11098 1957 79 SI WA NOT_NAMED 1956-08-29 15:00:00 TS -24.2044 105.290 main 820 789 P_____P__PP___ SH011957 -24.0136 104.743 15 -1 -24.9626 107.496 -24.0136 104.743 TC 15 -24.0184 104.724 1 19 23 102
1956240S11098 1957 79 SI WA NOT_NAMED 1956-08-29 16:00:00 TS -24.2844 105.705 main 779 698 P_____P__PO___ SH011957 -24.1146 105.192 15 -1 -24.9782 107.746 -24.1146 105.192 TC 15 -24.1000 105.200 1 20 23 102
1956240S11098 1957 79 SI WA NOT_NAMED 1956-08-29 18:00:00 TS -24.4412 106.542 main 698 566 O_____P__OP___ jtwc_sh SH011957 -24.3000 106.100 15 -1 -25.0082 108.247 -24.3000 106.100 TC 15 -24.2976 106.164 1 24 100
1956240S11098 1957 79 SI WA NOT_NAMED 1956-08-29 21:00:00 TS -24.6403 107.830 main 566 436 P_____P__PP___ SH011957 -24.5293 107.508 15 -1 -25.0501 108.998 -24.5293 107.508 TC 15 -24.5634 107.630 1 24 99
1956240S11098 1957 79 SI WA NOT_NAMED 1956-08-30 00:00:00 TS -24.8058 109.128 main 436 397 O_____P__OP___ jtwc_sh SH011957 -24.7000 108.900 15 -1 -25.0882 109.750 -24.7000 108.900 TC 15 -24.7674 109.045 1 24 98
1956240S11098 1957 79 SI WA NOT_NAMED 1956-08-30 01:00:00 TS -24.8621 109.560 1005 bom main 387 308 P_____O__PP___ SH011957 -24.7551 109.371 15 -1 -25.1000 110.000 1005 -24.7551 109.371 TC 15 -24.8173 109.490 1 22 97
1956240S11098 1957 79 SI WA NOT_NAMED 1956-08-30 03:00:00 TS -24.9424 110.353 main 308 278 P_____P__PP___ SH011957 -24.8451 110.290 15 -1 -25.1350 110.500 1003 -24.8451 110.290 TC 15 -24.8844 110.321 1 21 95
1956240S11098 1957 79 SI WA NOT_NAMED 1956-08-30 04:00:00 TS -24.9478 110.720 main 278 209 P_____P__PO___ SH011957 -24.8760 110.723 15 -1 -25.1519 110.750 1003 -24.8760 110.723 TC 15 -24.9000 110.700 1 20 90
1956240S11098 1957 79 SI WA NOT_NAMED 1956-08-30 06:00:00 TS -24.9445 111.432 main 209 180 O_____P__OP___ jtwc_sh SH011957 -24.9000 111.500 15 -1 -25.1844 111.250 1002 -24.9000 111.500 TC 15 -24.8941 111.377 1 19 88
1956240S11098 1957 79 SI WA NOT_NAMED 1956-08-30 07:00:00 TS -24.9079 111.764 1002 bom main 170 119 P_____O__PP___ SH011957 -24.8903 111.831 15 -1 -25.2000 111.500 1002 -24.8903 111.831 TC 15 -24.8747 111.678 1 16 82
1956240S11098 1957 79 SI WA NOT_NAMED 1956-08-30 09:00:00 TS -24.8242 112.324 main 119 52 P________PP___ SH011957 -24.8348 112.396 17 -1 -24.8348 112.396 TC 17 -24.8084 112.218 1 14 78
1956240S11098 1957 79 SI WA NOT_NAMED 1956-08-30 12:00:00 TS -24.6783 113.003 main 52 0 O________OP___ jtwc_sh SH011957 -24.7000 113.100 20 -1 -24.7000 113.100 TC 20 -24.6566 112.907 1 11 72
1956240S11098 1957 79 SI WA NOT_NAMED 1956-08-30 15:00:00 NR -24.4670 113.508 main 0 0 __________P___ SH011957 -1 TC -24.4670 113.508 1 10 66
1956240S11098 1957 79 SI WA NOT_NAMED 1956-08-30 16:00:00 NR -24.4000 113.700 main 0 __________O___ SH011957 -1 TC -24.4000 113.700 1 11 69

IBTrACS Databaseについて

本データベースは、米国NOAAが公開する1842年以降の世界の熱帯低気圧のベストトラックデータアーカイブInternational Best Track Archive for Climate Stewardship (IBTrACS)を、ウェブで閲覧しやすい形式に変換したものです。

最終更新日:2021-11-26